createdAt,value
2019-01-03T00:01:27.450Z,0.80
2019-01-03T00:04:27.477Z,0.80
2019-01-03T00:07:26.069Z,1.00
2019-01-03T00:10:33.109Z,1.00
2019-01-03T00:13:21.006Z,0.90
2019-01-03T00:16:05.527Z,0.80
2019-01-03T00:19:12.522Z,0.80
2019-01-03T00:22:19.674Z,0.80
2019-01-03T00:25:26.730Z,0.70
2019-01-03T00:28:36.013Z,0.60
2019-01-03T00:31:35.605Z,0.60
2019-01-03T00:34:42.889Z,0.50
2019-01-03T00:37:49.971Z,0.50
2019-01-03T00:40:57.275Z,0.20
2019-01-03T00:43:54.582Z,0.20
2019-01-03T00:47:01.655Z,0.20
2019-01-03T00:50:01.051Z,0.30
2019-01-03T00:53:00.865Z,0.40
2019-01-03T00:56:01.241Z,0.50
2019-01-03T00:59:01.415Z,0.70
2019-01-03T01:02:01.208Z,0.50
2019-01-03T01:05:00.610Z,0.50
2019-01-03T01:08:00.131Z,0.50
2019-01-03T01:11:00.282Z,0.60
2019-01-03T01:13:59.753Z,0.60
2019-01-03T01:16:59.306Z,0.50
2019-01-03T01:19:58.303Z,0.50
2019-01-03T01:22:58.011Z,0.40
2019-01-03T01:25:52.620Z,0.50
2019-01-03T01:28:54.974Z,0.40
2019-01-03T01:31:55.096Z,0.30
2019-01-03T01:34:58.046Z,0.20
2019-01-03T01:37:57.895Z,0.10
2019-01-03T01:40:58.117Z,0.10
2019-01-03T01:43:57.778Z,0.20
2019-01-03T01:46:57.411Z,0.30
2019-01-03T01:50:03.058Z,0.20
2019-01-03T01:53:05.554Z,0.20
2019-01-03T01:56:04.302Z,0.10
2019-01-03T01:59:03.785Z,0.10
2019-01-03T02:02:06.012Z,0.10
2019-01-03T02:05:05.706Z,0.10
2019-01-03T02:07:58.575Z,0.00
2019-01-03T02:10:57.986Z,-0.10
2019-01-03T02:13:54.607Z,0.10
2019-01-03T02:16:54.494Z,0.10
2019-01-03T02:19:54.614Z,0.20
2019-01-03T02:22:48.317Z,0.30
2019-01-03T02:25:42.004Z,0.10
2019-01-03T02:28:35.890Z,0.10
2019-01-03T02:31:36.160Z,0.10
2019-01-03T02:34:34.401Z,0.20
2019-01-03T02:37:34.568Z,0.40
2019-01-03T02:40:28.939Z,0.10
2019-01-03T02:43:28.916Z,0.00
2019-01-03T02:46:18.995Z,0.00
2019-01-03T02:49:18.856Z,0.00
2019-01-03T02:52:18.683Z,0.00
2019-01-03T02:55:19.104Z,0.00
2019-01-03T02:58:18.784Z,0.00
2019-01-03T03:01:18.350Z,-0.10
2019-01-03T03:04:18.005Z,0.00
2019-01-03T03:07:17.904Z,-0.10
2019-01-03T03:10:20.710Z,-0.20
2019-01-03T03:13:20.519Z,-0.20
2019-01-03T03:16:23.626Z,0.20
2019-01-03T03:19:22.661Z,0.00
2019-01-03T03:22:22.298Z,0.20
2019-01-03T03:25:22.303Z,0.30
2019-01-03T03:28:21.770Z,0.20
2019-01-03T03:31:21.457Z,0.00
2019-01-03T03:34:20.990Z,0.40
2019-01-03T03:37:20.987Z,0.30
2019-01-03T03:40:20.422Z,0.40
2019-01-03T03:43:25.922Z,0.30
2019-01-03T03:46:19.243Z,0.20
2019-01-03T03:49:19.010Z,0.30
2019-01-03T03:52:19.118Z,0.30
2019-01-03T03:55:19.704Z,0.20
2019-01-03T03:58:19.957Z,0.20
2019-01-03T04:01:20.272Z,0.30
2019-01-03T04:04:19.868Z,0.50
2019-01-03T04:07:19.964Z,0.50
2019-01-03T04:10:19.712Z,0.50
2019-01-03T04:13:19.091Z,0.50
2019-01-03T04:16:18.929Z,0.60
2019-01-03T04:19:18.593Z,0.70
2019-01-03T04:22:18.131Z,0.70
2019-01-03T04:25:20.659Z,0.70
2019-01-03T04:28:20.320Z,0.70
2019-01-03T04:31:19.247Z,0.70
2019-01-03T04:34:19.507Z,0.80
2019-01-03T04:37:19.103Z,0.80
2019-01-03T04:40:09.165Z,0.70
2019-01-03T04:43:10.566Z,0.70
2019-01-03T04:46:10.670Z,0.70
2019-01-03T04:49:04.512Z,0.80
2019-01-03T04:52:04.236Z,0.60
2019-01-03T04:55:04.660Z,0.60
2019-01-03T04:58:04.614Z,0.80
2019-01-03T05:01:05.094Z,0.80
2019-01-03T05:04:07.864Z,0.80
2019-01-03T05:07:10.147Z,0.70
2019-01-03T05:10:00.882Z,0.70
2019-01-03T05:13:00.613Z,0.50
2019-01-03T05:16:00.783Z,0.30
2019-01-03T05:19:00.190Z,0.20
2019-01-03T05:22:00.452Z,0.10
2019-01-03T05:24:59.831Z,0.20
2019-01-03T05:27:59.854Z,0.00
2019-01-03T05:30:59.443Z,0.00
2019-01-03T05:33:58.910Z,0.00
2019-01-03T05:36:53.905Z,-0.10
2019-01-03T05:39:47.467Z,0.00
2019-01-03T05:42:38.290Z,0.00
2019-01-03T05:45:38.186Z,-0.10
2019-01-03T05:48:41.008Z,-0.20
2019-01-03T05:51:45.263Z,-0.20
2019-01-03T05:54:52.321Z,-0.30
2019-01-03T05:57:59.401Z,-0.20
2019-01-03T06:00:58.990Z,0.00
2019-01-03T06:04:06.051Z,0.20
2019-01-03T06:07:13.118Z,0.20
2019-01-03T06:10:20.419Z,0.30
2019-01-03T06:13:27.483Z,0.30
2019-01-03T06:16:34.531Z,0.40
2019-01-03T06:19:41.598Z,0.40
2019-01-03T06:22:48.659Z,0.40
2019-01-03T06:25:55.708Z,0.40
2019-01-03T06:29:02.770Z,0.50
2019-01-03T06:32:10.060Z,0.50
2019-01-03T06:35:17.142Z,0.50
2019-01-03T06:38:24.193Z,0.50
2019-01-03T06:41:31.251Z,0.50
2019-01-03T06:44:38.307Z,0.40
2019-01-03T06:47:45.361Z,0.40
2019-01-03T06:50:37.689Z,0.40
2019-01-03T06:53:37.911Z,0.40
2019-01-03T06:56:40.574Z,0.20
2019-01-03T06:59:40.006Z,0.10
2019-01-03T07:02:39.773Z,0.00
2019-01-03T07:05:40.210Z,0.10
2019-01-03T07:08:46.388Z,0.00
2019-01-03T07:11:46.480Z,0.00
2019-01-03T07:14:45.971Z,0.10
2019-01-03T07:17:42.859Z,0.30
2019-01-03T07:20:43.090Z,0.30
2019-01-03T07:23:42.618Z,0.40
2019-01-03T07:26:45.046Z,0.50
2019-01-03T07:29:41.720Z,0.50
2019-01-03T07:32:48.105Z,0.30
2019-01-03T07:35:48.180Z,0.30
2019-01-03T07:38:48.039Z,0.40
2019-01-03T07:41:47.943Z,0.40
2019-01-03T07:44:53.350Z,0.40
2019-01-03T07:47:51.461Z,0.40
2019-01-03T07:50:51.578Z,0.20
2019-01-03T07:53:51.352Z,0.10
2019-01-03T07:56:50.822Z,0.00
2019-01-03T07:59:55.342Z,-0.10
2019-01-03T08:02:55.070Z,-0.10
2019-01-03T08:05:54.905Z,0.00
2019-01-03T08:08:54.984Z,0.00
2019-01-03T08:11:55.321Z,0.10
2019-01-03T08:14:46.118Z,0.40
2019-01-03T08:17:46.458Z,0.30
2019-01-03T08:20:45.929Z,0.50
2019-01-03T08:23:48.951Z,0.20
2019-01-03T08:26:49.250Z,0.40
2019-01-03T08:29:49.092Z,0.20
2019-01-03T08:32:55.217Z,0.20
2019-01-03T08:35:55.008Z,0.20
2019-01-03T08:38:55.094Z,0.20
2019-01-03T08:41:51.870Z,0.30
2019-01-03T08:44:48.749Z,0.50
2019-01-03T08:47:48.711Z,0.60
2019-01-03T08:50:48.428Z,0.70
2019-01-03T08:53:47.887Z,0.80
2019-01-03T08:56:47.310Z,1.00
2019-01-03T08:59:46.883Z,1.10
2019-01-03T09:02:46.283Z,1.40
2019-01-03T09:05:46.035Z,1.20
2019-01-03T09:08:45.474Z,1.40
2019-01-03T09:11:42.655Z,1.40
2019-01-03T09:14:30.489Z,1.40
2019-01-03T09:17:18.314Z,1.50
2019-01-03T09:20:25.458Z,1.60
2019-01-03T09:23:32.525Z,1.60
2019-01-03T09:26:39.601Z,1.70
2019-01-03T09:29:46.642Z,1.60
2019-01-03T09:32:53.983Z,1.70
2019-01-03T09:36:01.427Z,1.70
2019-01-03T09:39:27.738Z,1.80
2019-01-03T09:42:34.810Z,1.90
2019-01-03T09:45:23.031Z,2.00
2019-01-03T09:48:04.204Z,2.00
2019-01-03T09:50:44.634Z,1.90
2019-01-03T09:53:25.429Z,2.00
2019-01-03T09:56:06.217Z,2.10
2019-01-03T09:58:46.827Z,2.20
2019-01-03T10:01:27.682Z,2.20
2019-01-03T10:04:08.774Z,2.30
2019-01-03T10:06:49.686Z,2.30
2019-01-03T10:09:30.793Z,2.40
2019-01-03T10:12:11.430Z,2.40
2019-01-03T10:14:51.841Z,2.40
2019-01-03T10:17:32.414Z,2.50
2019-01-03T10:20:13.007Z,2.70
2019-01-03T10:22:54.163Z,2.60
2019-01-03T10:28:24.775Z,2.60
2019-01-03T10:31:05.758Z,2.60
2019-01-03T10:33:46.578Z,2.70
2019-01-03T10:36:27.572Z,2.80
2019-01-03T10:39:08.606Z,2.90
2019-01-03T10:41:49.330Z,2.90
2019-01-03T10:44:30.252Z,2.90
2019-01-03T10:47:10.620Z,2.90
2019-01-03T10:49:51.134Z,2.90
2019-01-03T10:52:31.524Z,3.00
2019-01-03T10:55:12.370Z,2.90
2019-01-03T10:57:52.801Z,3.00
2019-01-03T11:00:33.328Z,2.90
2019-01-03T11:03:13.946Z,3.00
2019-01-03T11:05:54.935Z,3.00
2019-01-03T11:08:35.719Z,3.10
2019-01-03T11:11:16.654Z,3.10
2019-01-03T11:13:57.627Z,3.30
2019-01-03T11:16:38.120Z,3.10
2019-01-03T11:19:18.825Z,3.30
2019-01-03T11:21:59.542Z,3.40
2019-01-03T11:24:40.701Z,3.40
2019-01-03T11:27:21.434Z,3.40
2019-01-03T11:30:02.228Z,3.50
2019-01-03T11:32:43.235Z,3.40
2019-01-03T11:35:24.382Z,3.40
2019-01-03T11:38:05.256Z,3.50
2019-01-03T11:40:45.934Z,3.50
2019-01-03T11:43:26.492Z,3.40
2019-01-03T11:46:07.180Z,3.40
2019-01-03T11:48:47.874Z,3.30
2019-01-03T11:51:28.554Z,3.30
2019-01-03T11:54:09.376Z,3.10
2019-01-03T11:56:50.171Z,3.20
2019-01-03T11:59:31.012Z,3.30
2019-01-03T12:02:12.527Z,3.20
2019-01-03T12:04:53.865Z,3.30
2019-01-03T12:07:34.498Z,3.30
2019-01-03T12:10:15.558Z,3.40
2019-01-03T12:12:56.422Z,3.20
2019-01-03T12:15:37.029Z,3.20
2019-01-03T12:18:17.391Z,3.00
2019-01-03T12:20:58.353Z,3.30
2019-01-03T12:23:39.526Z,3.40
2019-01-03T12:26:20.234Z,3.40
2019-01-03T12:29:00.885Z,3.60
2019-01-03T12:31:41.763Z,3.60
2019-01-03T12:34:22.791Z,3.50
2019-01-03T12:37:03.379Z,3.60
2019-01-03T12:39:43.794Z,3.70
2019-01-03T12:42:24.158Z,3.80
2019-01-03T12:45:04.886Z,3.90
2019-01-03T12:47:45.958Z,3.80
2019-01-03T12:50:26.822Z,3.90
2019-01-03T12:53:07.571Z,3.90
2019-01-03T12:55:48.161Z,3.90
2019-01-03T12:58:29.046Z,3.90
2019-01-03T13:01:09.762Z,4.00
2019-01-03T13:03:51.247Z,4.00
2019-01-03T13:06:32.072Z,4.00
2019-01-03T13:09:17.639Z,3.80
2019-01-03T13:11:58.522Z,3.80
2019-01-03T13:14:39.051Z,3.70
2019-01-03T13:17:19.743Z,3.40
2019-01-03T13:20:00.461Z,3.40
2019-01-03T13:22:41.360Z,3.50
2019-01-03T13:25:22.092Z,3.50
2019-01-03T13:28:03.276Z,3.60
2019-01-03T13:30:43.994Z,3.70
2019-01-03T13:33:24.594Z,3.70
2019-01-03T13:36:05.295Z,3.80
2019-01-03T13:38:46.261Z,3.80
2019-01-03T13:41:26.935Z,3.90
2019-01-03T13:44:07.427Z,4.00
2019-01-03T13:46:48.427Z,4.00
2019-01-03T13:49:29.245Z,4.10
2019-01-03T13:52:09.960Z,4.00
2019-01-03T13:54:51.039Z,3.90
2019-01-03T13:57:31.394Z,4.00
2019-01-03T14:00:12.179Z,3.90
2019-01-03T14:02:53.051Z,3.60
2019-01-03T14:05:33.651Z,3.70
2019-01-03T14:08:14.532Z,3.80
2019-01-03T14:10:55.539Z,3.70
2019-01-03T14:13:36.512Z,3.60
2019-01-03T14:16:17.866Z,3.70
2019-01-03T14:18:58.375Z,3.70
2019-01-03T14:21:38.964Z,3.80
2019-01-03T14:24:19.770Z,3.90
2019-01-03T14:27:00.523Z,3.90
2019-01-03T14:29:41.328Z,3.90
2019-01-03T14:32:22.248Z,3.90
2019-01-03T14:35:02.938Z,4.00
2019-01-03T14:37:43.679Z,4.00
2019-01-03T14:40:24.627Z,4.00
2019-01-03T14:43:05.202Z,4.00
2019-01-03T14:45:46.224Z,4.00
2019-01-03T14:48:26.656Z,4.00
2019-01-03T14:51:07.427Z,3.90
2019-01-03T14:53:48.168Z,3.90
2019-01-03T14:56:29.032Z,4.00
2019-01-03T14:59:09.937Z,4.00
2019-01-03T15:01:50.867Z,4.10
2019-01-03T15:04:31.510Z,4.10
2019-01-03T15:07:12.168Z,4.20
2019-01-03T15:09:53.112Z,4.10
2019-01-03T15:12:33.918Z,3.90
2019-01-03T15:15:14.650Z,4.00
2019-01-03T15:17:55.606Z,3.90
2019-01-03T15:20:36.655Z,3.80
2019-01-03T15:23:17.057Z,3.70
2019-01-03T15:25:57.595Z,3.70
2019-01-03T15:28:38.416Z,3.80
2019-01-03T15:31:19.140Z,3.80
2019-01-03T15:34:00.016Z,3.90
2019-01-03T15:36:41.261Z,3.90
2019-01-03T15:39:22.407Z,4.00
2019-01-03T15:42:03.706Z,3.90
2019-01-03T15:44:44.183Z,3.90
2019-01-03T15:47:25.128Z,3.90
2019-01-03T15:50:06.040Z,3.80
2019-01-03T15:52:46.699Z,3.80
2019-01-03T15:55:27.455Z,3.90
2019-01-03T15:58:08.317Z,3.90
2019-01-03T16:00:49.235Z,3.90
2019-01-03T16:03:29.649Z,3.90
2019-01-03T16:06:10.410Z,3.80
2019-01-03T16:08:51.186Z,3.90
2019-01-03T16:11:31.857Z,3.80
2019-01-03T16:14:32.084Z,3.70
2019-01-03T16:17:13.346Z,3.70
2019-01-03T16:19:54.224Z,3.50
2019-01-03T16:22:34.865Z,3.40
2019-01-03T16:25:15.686Z,3.30
2019-01-03T16:27:56.687Z,3.30
2019-01-03T16:30:37.251Z,3.40
2019-01-03T16:33:18.183Z,3.40
2019-01-03T16:35:58.710Z,3.30
2019-01-03T16:41:23.787Z,3.40
2019-01-03T16:44:04.650Z,3.40
2019-01-03T16:46:45.452Z,3.40
2019-01-03T16:49:26.087Z,3.40
2019-01-03T16:52:06.751Z,3.40
2019-01-03T16:54:47.540Z,3.50
2019-01-03T16:57:28.297Z,3.50
2019-01-03T17:00:09.256Z,3.50
2019-01-03T17:02:50.007Z,3.50
2019-01-03T17:05:31.194Z,3.50
2019-01-03T17:08:11.571Z,3.50
2019-01-03T17:10:52.495Z,3.40
2019-01-03T17:13:33.319Z,3.30
2019-01-03T17:16:13.991Z,3.30
2019-01-03T17:18:54.832Z,3.20
2019-01-03T17:21:35.715Z,3.30
2019-01-03T17:24:16.446Z,3.30
2019-01-03T17:26:57.506Z,3.30
2019-01-03T17:29:38.101Z,3.40
2019-01-03T17:32:18.743Z,3.50
2019-01-03T17:34:59.905Z,3.50
2019-01-03T17:37:41.248Z,3.40
2019-01-03T17:40:22.458Z,3.30
2019-01-03T17:43:03.038Z,3.30
2019-01-03T17:45:43.668Z,3.40
2019-01-03T17:48:24.910Z,3.40
2019-01-03T17:51:05.679Z,3.50
2019-01-03T17:53:46.462Z,3.40
2019-01-03T17:56:26.839Z,3.40
2019-01-03T17:59:07.686Z,3.40
2019-01-03T18:01:48.704Z,3.50
2019-01-03T18:04:28.968Z,3.40
2019-01-03T18:07:09.846Z,3.30
2019-01-03T18:09:50.223Z,3.30
2019-01-03T18:12:31.060Z,3.30
2019-01-03T18:15:11.946Z,3.30
2019-01-03T18:17:52.759Z,3.20
2019-01-03T18:20:33.524Z,3.30
2019-01-03T18:23:14.108Z,3.20
2019-01-03T18:25:55.002Z,3.20
2019-01-03T18:28:36.395Z,3.20
2019-01-03T18:31:16.910Z,3.10
2019-01-03T18:33:57.719Z,3.10
2019-01-03T18:36:38.067Z,3.10
2019-01-03T18:39:18.614Z,3.20
2019-01-03T18:44:48.632Z,3.00
2019-01-03T18:47:29.487Z,3.00
2019-01-03T18:50:10.073Z,3.10
2019-01-03T18:52:50.852Z,3.10
2019-01-03T18:55:31.674Z,3.20
2019-01-03T18:58:12.489Z,3.00
2019-01-03T19:00:53.080Z,2.90
2019-01-03T19:03:33.763Z,3.00
2019-01-03T19:06:14.432Z,2.80
2019-01-03T19:08:55.155Z,2.90
2019-01-03T19:11:36.060Z,2.90
2019-01-03T19:14:16.779Z,3.00
2019-01-03T19:16:57.151Z,3.00
2019-01-03T19:19:38.111Z,3.00
2019-01-03T19:22:18.743Z,3.00
2019-01-03T19:24:59.764Z,2.90
2019-01-03T19:27:40.372Z,2.80
2019-01-03T19:30:21.394Z,2.70
2019-01-03T19:33:02.283Z,2.70
2019-01-03T19:35:42.948Z,2.80
2019-01-03T19:38:24.145Z,2.80
2019-01-03T19:41:04.937Z,2.80
2019-01-03T19:43:45.971Z,2.80
2019-01-03T19:46:26.534Z,2.80
2019-01-03T19:49:07.504Z,2.70
2019-01-03T19:51:48.005Z,2.70
2019-01-03T19:54:29.024Z,2.70
2019-01-03T19:57:09.455Z,2.60
2019-01-03T19:59:50.126Z,2.60
2019-01-03T20:02:31.159Z,2.50
2019-01-03T20:05:12.003Z,2.40
2019-01-03T20:07:52.785Z,2.40
2019-01-03T20:10:33.810Z,2.50
2019-01-03T20:13:14.927Z,2.10
2019-01-03T20:15:56.096Z,2.00
2019-01-03T20:18:36.947Z,2.00
2019-01-03T20:21:17.731Z,1.80
2019-01-03T20:23:58.478Z,1.80
2019-01-03T20:26:39.462Z,1.60
2019-01-03T20:29:20.490Z,1.60
2019-01-03T20:32:00.795Z,1.60
2019-01-03T20:34:41.668Z,1.60
2019-01-03T20:37:22.603Z,1.60
2019-01-03T20:40:03.859Z,1.50
2019-01-03T20:42:44.719Z,1.50
2019-01-03T20:45:25.379Z,1.60
2019-01-03T20:48:06.257Z,1.70
2019-01-03T20:50:46.918Z,1.80
2019-01-03T20:53:27.875Z,1.90
2019-01-03T20:56:09.093Z,2.00
2019-01-03T20:58:50.125Z,2.20
2019-01-03T21:01:30.407Z,2.40
2019-01-03T21:04:11.095Z,2.40
2019-01-03T21:06:51.653Z,2.40
2019-01-03T21:09:32.750Z,2.30
2019-01-03T21:12:13.398Z,2.40
2019-01-03T21:14:53.855Z,2.60
2019-01-03T21:17:34.383Z,2.70
2019-01-03T21:20:14.740Z,2.70
2019-01-03T21:22:55.268Z,2.70
2019-01-03T21:25:35.980Z,2.70
2019-01-03T21:28:16.897Z,2.80
2019-01-03T21:30:57.404Z,3.00
2019-01-03T21:33:38.304Z,3.00
2019-01-03T21:36:19.452Z,3.00
2019-01-03T21:38:59.974Z,3.00
2019-01-03T21:41:40.562Z,3.10
2019-01-03T21:44:21.082Z,3.10
2019-01-03T21:47:02.100Z,3.00
2019-01-03T21:49:42.423Z,2.80
2019-01-03T21:52:23.302Z,3.00
2019-01-03T21:55:04.436Z,3.00
2019-01-03T21:57:45.249Z,3.00
2019-01-03T22:00:24.406Z,2.90
2019-01-03T22:03:12.403Z,2.90
2019-01-03T22:06:00.634Z,2.90
2019-01-03T22:08:48.614Z,2.90
2019-01-03T22:11:36.846Z,2.90
2019-01-03T22:14:24.806Z,3.00
2019-01-03T22:17:12.786Z,2.90
2019-01-03T22:20:00.826Z,2.80
2019-01-03T22:22:48.826Z,2.80
2019-01-03T22:25:36.808Z,2.80
2019-01-03T22:28:25.364Z,2.90
2019-01-03T22:31:13.340Z,2.90
2019-01-03T22:34:01.550Z,2.90
2019-01-03T22:36:49.529Z,2.90
2019-01-03T22:39:37.591Z,2.90
2019-01-03T22:45:33.773Z,2.80
2019-01-03T22:48:21.949Z,2.80
2019-01-03T22:51:03.047Z,2.80
2019-01-03T22:53:43.754Z,3.00
2019-01-03T22:56:24.444Z,2.80
2019-01-03T22:59:05.243Z,2.80
2019-01-03T23:01:46.083Z,2.80
2019-01-03T23:04:26.922Z,2.70
2019-01-03T23:07:07.742Z,2.80
2019-01-03T23:09:36.570Z,2.70
2019-01-03T23:12:24.696Z,2.70
2019-01-03T23:15:12.653Z,2.70
2019-01-03T23:18:00.645Z,2.70
2019-01-03T23:20:48.629Z,2.70
2019-01-03T23:23:36.923Z,2.70
2019-01-03T23:26:24.904Z,2.70
2019-01-03T23:29:13.209Z,2.70
2019-01-03T23:32:01.193Z,2.80
2019-01-03T23:34:49.239Z,2.90
2019-01-03T23:37:37.478Z,2.90
2019-01-03T23:40:26.863Z,2.90
2019-01-03T23:43:15.474Z,2.80
2019-01-03T23:46:03.457Z,2.80
2019-01-03T23:48:44.810Z,2.70
2019-01-03T23:51:23.858Z,2.60
2019-01-03T23:54:12.082Z,2.60
2019-01-03T23:57:00.148Z,2.60
2019-01-03T23:59:48.121Z,2.50
